Terminal Aerodrome Forecast
Issued by NWS Wilmington, OH

Home | Current Version | Previous Version | Text Only | Print | Product List | Glossary On
Versions: 1 2 3 4 5 6 7 8 9 10 11 12 13 14 15 16 17 18
000
FTUS41 KILN 290500
TAFDAY
TAF
KDAY 290520Z 2906/3006 VRB05KT P6SM SKC
     FM291300 18012KT P6SM BKN200
     FM291500 19015G23KT P6SM BKN150
     FM292200 20012KT P6SM -SHRA SCT050 OVC080
     FM300400 23010KT P6SM VCSH OVC025=

USA.gov is the U.S. government's official web portal to all federal, state and local government web resources and services.